x

Buoy F01 - West Penobscot Bay (44033) Wave Buoy

9:04am - Tue 25th Apr 2017 All times are EDT. -4 hours from GMT.

  • Sig Wave height 1.6ft
  • Peak Period 3s
  • Wind
    16mph, 18mph gusts
  • Sea Temp 43°f
  • Air Temp 43°f
  • Sea Pressure 1028.8mb
  • Buoy F01 - West Penobscot Bay
  • Buoy F01 - West Penobscot Bay

More Historic Weather Station data

Upgrade to MSW Pro to gain access to the past 30 days of data for over 8000 Wavebouys and Weather Stations around the globe.

Join Pro

Comparision Forecast

View Surf forecast
   
Tue 04/25 9:04am 1.6ft 3s 16 18 mph 1028.8mb 43f 43f
8:04am 1.3ft 2s 16 20 mph 1028mb 44f 43f
7:04am 1.3ft 8s 11 13 mph 1027.9mb 44f 42f
6:04am 1.3ft 8s 7
mph
1026.4mb 42f 40f
5:04am 1.3ft 8s 7
mph
1026.4mb 42f 40f
4:04am 1.3ft 8s 7
mph
1026.3mb 42f 40f
Mon 04/24 11:04pm  -   -  4
mph
1024.5mb - 44f
10:04pm 1.6ft 11s  -  2 mph 1024.4mb 44f 44f
9:04pm 1.3ft 8s 7
mph
1023.4mb 44f 45f
8:04pm 1.3ft 8s 7
mph
1023.4mb 44f 45f
7:04pm 1ft 4s 2
mph
1022.7mb 45f 46f
6:04pm 1.3ft 5s 2 4 mph 1022.6mb 44f 47f
5:04pm 1.3ft 8s 7
mph
1022.1mb 43f 46f
4:04pm 1.6ft 11s 7
mph
1021.7mb 43f 48f
3:04pm 1.3ft 5s 2 4 mph 1021.7mb 44f 49f
2:04pm 1.6ft 5s 2 4 mph 1021.9mb 46f 49f
1:04pm 2ft 5s 2
mph
1021.7mb 42f 48f
12:04pm 2ft 5s 4 7 mph 1021.6mb 42f 46f
11:04am 2ft 5s 4 7 mph 1021.6mb 42f 46f
9:04am 2ft 5s  -  2 mph 1020.6mb 41f 46f
8:04am 1.6ft 5s 2
mph
1020.1mb 41f 46f
6:04am 2ft 5s 4
mph
1018.9mb 41f 42f
5:04am 2ft 6s 4
mph
1018mb 42f 43f
4:04am 2ft 5s 2 4 mph 1017.7mb 42f 43f
3:04am 2ft 5s 13 16 mph 1016.6mb 42f 44f
2:04am 2ft 5s 13 18 mph 1016.6mb 42f 44f
1:04am 2ft 5s 13 18 mph 1016.6mb 42f 44f
12:04am 2ft 8s 7 9 mph 1017mb 42f 43f
Sun 04/23 11:04pm 1.3ft 4s 13 16 mph 1017.1mb 42f 43f
10:04pm 1.3ft 4s 13 16 mph 1017.5mb 42f 44f
9:04pm 2ft 8s 13 18 mph 1017.1mb 42f 44f
8:04pm 1.3ft 3s 13 16 mph 1016.7mb 43f 44f
7:04pm 1ft 3s 13 16 mph 1016.5mb 43f 44f
6:04pm 2.5ft 8s 13 16 mph 1016.2mb 43f 44f
5:04pm 1ft 3s 13 16 mph 1016.5mb 41f 45f
4:04pm 1ft 3s 13 16 mph 1016.5mb 41f 45f
3:04pm 1.6ft 6s 11 13 mph 1017mb 41f 44f
12:04pm 2ft 8s 9
mph
1017.3mb 43f 43f
11:04am 2.5ft 8s 2 4 mph 1017.4mb 42f 44f
10:04am 2ft 11s 4
mph
1017.1mb 42f 42f
9:04am 2ft 8s 2
mph
1017mb 41f 41f
Sat 04/22 2:04pm 4ft 6s 11 13 mph 1014.7mb 41f 38f
1:04pm 4.5ft 6s 11 13 mph 1015mb 42f 38f
12:04pm 3.5ft 6s 9 11 mph 1015.2mb 42f 38f
11:04am 3.5ft 5s 11 13 mph 1015.8mb 42f 39f
10:04am 3.5ft 6s 11 13 mph 1015.9mb 42f 39f
9:04am 4ft 6s 13 16 mph 1016.2mb 41f 39f
8:04am 3.5ft 6s 11 16 mph 1016.5mb 41f 39f
5:04am 3.5ft 5s 16 20 mph 1016.6mb 41f 39f
3:04am 3ft 6s 13 16 mph 1017.5mb 42f 39f
2:04am  -   -  13 16 mph 1017.8mb - 39f
1:04am 2.5ft 6s 13 16 mph 1018.4mb 42f 40f
Fri 04/21 11:04pm  -   -  9 11 mph 1019.1mb - 40f
9:04pm  -   -  16 18 mph 1018.7mb - 40f
8:04pm 2.5ft 6s 18 22 mph 1018.6mb 42f 40f
7:04pm 3ft 5s 16 20 mph 1018.8mb 42f 40f
6:04pm 3.5ft 5s 16 18 mph 1019.5mb 42f 40f
5:04pm  -   -  18 22 mph 1019.8mb - 40f